Terminal Aerodrome Forecast
Issued by NWS

Home | Current Version | Previous Version | Graphics & Text | Print | Product List | Glossary On
Versions: 1 2 3 4 5 6 7 8 9 10 11 12 13 14
000
FTUS43 KFGF 080500
TAFBJI
TAF
KBJI 080520Z 0806/0906 31008KT P6SM SCT100
     FM081500 31015KT P6SM SCT025
      TEMPO 0815/0818 BKN025
     FM081800 31016KT P6SM BKN060
     FM090000 32012KT P6SM SKC=

USA.gov is the U.S. government's official web portal to all federal, state and local government web resources and services.